Time;durP1;ratioP1;P1;durP2;ratioP2;P2;SDS_P1;SDS_P2;PMS_P1;PMS_P2;Temp;Humidity;BMP_temperature;BMP_pressure;BME280_temperature;BME280_humidity;BME280_pressure;Samples;Min_cycle;Max_cycle;Signal;HPM_P1;HPM_P2
2023/07/25 00:01:50;;;;;;;7.97;5.53;;;;;;;12.85;100.00;99529.22;5030905;28;20053;-61
2023/07/25 00:04:19;;;;;;;7.88;5.18;;;;;;;12.92;100.00;99537.31;5030937;28;20048;-62
2023/07/25 00:06:46;;;;;;;9.20;4.82;;;;;;;12.91;100.00;99537.53;5031180;28;20045;-62
2023/07/25 00:09:12;;;;;;;6.18;5.20;;;;;;;12.93;100.00;99540.84;5030634;28;20041;-61
2023/07/25 00:11:39;;;;;;;6.88;4.57;;;;;;;12.93;100.00;99544.34;5030400;28;20528;-60
2023/07/25 00:14:05;;;;;;;10.25;4.88;;;;;;;12.92;100.00;99540.00;5030680;28;20050;-61
2023/07/25 00:16:32;;;;;;;13.48;4.25;;;;;;;12.93;100.00;99541.66;5030828;28;20045;-63
2023/07/25 00:19:00;;;;;;;8.10;3.65;;;;;;;12.91;100.00;99541.06;5030738;28;20099;-61
2023/07/25 00:21:26;;;;;;;6.32;4.50;;;;;;;12.84;100.00;99554.50;5030697;28;20092;-61
2023/07/25 00:23:53;;;;;;;5.53;3.63;;;;;;;12.78;100.00;99544.53;5030408;28;20049;-61
2023/07/25 00:26:19;;;;;;;7.18;4.25;;;;;;;12.77;100.00;99552.81;5030487;28;20155;-61
2023/07/25 00:28:46;;;;;;;6.90;4.45;;;;;;;12.73;100.00;99547.00;5030958;28;20049;-62
2023/07/25 00:31:12;;;;;;;4.93;3.97;;;;;;;12.69;100.00;99556.47;5030307;28;20045;-61
2023/07/25 00:33:39;;;;;;;7.72;4.35;;;;;;;12.72;100.00;99556.06;5030075;28;20076;-61
2023/07/25 00:36:05;;;;;;;11.30;5.00;;;;;;;12.71;100.00;99562.50;5029649;28;20073;-62
2023/07/25 00:38:32;;;;;;;7.55;5.25;;;;;;;12.66;100.00;99567.66;5030220;28;20612;-62
2023/07/25 00:40:58;;;;;;;7.85;4.55;;;;;;;12.65;100.00;99566.81;5029627;28;20072;-62
2023/07/25 00:43:27;;;;;;;10.88;4.78;;;;;;;12.61;100.00;99564.75;5030009;28;20103;-61
2023/07/25 00:45:54;;;;;;;8.80;4.25;;;;;;;12.63;100.00;99563.50;5029989;28;20120;-61
2023/07/25 00:48:20;;;;;;;8.68;5.28;;;;;;;12.65;100.00;99560.59;5030023;28;20045;-62
2023/07/25 00:50:50;;;;;;;11.05;4.40;;;;;;;12.56;100.00;99572.59;5029872;28;20041;-63
2023/07/25 00:53:17;;;;;;;6.75;4.60;;;;;;;12.61;100.00;99564.75;5030167;28;20448;-62
2023/07/25 00:55:44;;;;;;;10.55;4.65;;;;;;;12.64;100.00;99577.78;5029752;28;20053;-61
2023/07/25 00:58:11;;;;;;;11.55;5.63;;;;;;;12.60;100.00;99569.28;5029823;28;20473;-61
2023/07/25 01:00:38;;;;;;;5.22;4.15;;;;;;;12.62;100.00;99583.34;5028695;28;20103;-61
2023/07/25 01:03:06;;;;;;;7.68;4.35;;;;;;;12.66;100.00;99578.44;5029718;28;20156;-60
2023/07/25 01:09:36;;;;;;;6.78;4.70;;;;;;;12.67;100.00;99590.03;5029151;28;20076;-62
2023/07/25 01:12:04;;;;;;;9.23;4.85;;;;;;;12.63;100.00;99584.22;5029505;28;20053;-62
2023/07/25 01:14:32;;;;;;;7.75;4.25;;;;;;;12.58;100.00;99586.66;5029630;28;20115;-61
2023/07/25 01:17:16;;;;;;;7.68;4.75;;;;;;;12.49;100.00;99585.19;5029468;28;20091;-61
2023/07/25 01:19:46;;;;;;;6.63;4.65;;;;;;;12.50;100.00;99579.59;5029456;28;20041;-61
2023/07/25 01:22:13;;;;;;;8.95;4.68;;;;;;;12.50;100.00;99586.84;5029450;28;20362;-60
2023/07/25 01:24:45;;;;;;;8.85;4.40;;;;;;;12.43;100.00;99586.81;5029320;28;20045;-62
2023/07/25 01:27:15;;;;;;;11.00;5.00;;;;;;;12.44;100.00;99590.31;5029336;28;20052;-62
2023/07/25 01:29:42;;;;;;;10.32;5.05;;;;;;;12.40;100.00;99596.09;5024679;28;20042;-62
2023/07/25 01:32:10;;;;;;;8.25;4.93;;;;;;;12.39;100.00;99599.84;5009614;28;20463;-62
2023/07/25 01:34:37;;;;;;;9.32;5.03;;;;;;;12.39;100.00;99588.25;5009513;28;20042;-61
2023/07/25 01:37:05;;;;;;;10.23;5.15;;;;;;;12.37;100.00;99596.50;5009286;28;20058;-62
2023/07/25 01:39:32;;;;;;;16.17;6.38;;;;;;;12.35;100.00;99603.13;5009197;28;20045;-61
2023/07/25 01:41:58;;;;;;;10.68;5.43;;;;;;;12.34;100.00;99604.13;5009442;28;20045;-61
2023/07/25 01:44:25;;;;;;;12.25;5.70;;;;;;;12.30;100.00;99611.78;5009307;28;20045;-60
2023/07/25 01:46:55;;;;;;;18.05;6.55;;;;;;;12.33;100.00;99606.00;5009105;28;20481;-61
2023/07/25 01:49:21;;;;;;;12.75;5.72;;;;;;;12.38;100.00;99608.94;5008626;28;20053;-61
2023/07/25 01:51:48;;;;;;;9.02;6.05;;;;;;;12.40;100.00;99614.94;5009741;28;20686;-62
2023/07/25 01:54:16;;;;;;;10.98;6.00;;;;;;;12.44;100.00;99606.47;5020601;28;20037;-62
2023/07/25 01:56:43;;;;;;;10.55;5.97;;;;;;;12.41;100.00;99597.75;5028922;28;20080;-61
2023/07/25 01:59:12;;;;;;;6.93;5.43;;;;;;;12.45;100.00;99602.75;5028480;28;20470;-61
2023/07/25 02:01:38;;;;;;;9.63;5.63;;;;;;;12.48;100.00;99610.41;5028816;28;20068;-60
2023/07/25 02:04:05;;;;;;;8.88;6.78;;;;;;;12.51;100.00;99615.41;5028474;28;20053;-62
2023/07/25 02:06:32;;;;;;;16.92;6.15;;;;;;;12.44;100.00;99622.59;5028892;28;20041;-61
2023/07/25 02:08:59;;;;;;;12.93;6.68;;;;;;;12.47;100.00;99623.03;5027243;28;20045;-61
2023/07/25 02:11:25;;;;;;;8.90;5.88;;;;;;;12.51;100.00;99624.28;5028334;28;20119;-61
2023/07/25 02:13:52;;;;;;;8.95;6.50;;;;;;;12.53;100.00;99616.88;5028615;28;20057;-61
2023/07/25 02:16:19;;;;;;;12.18;5.82;;;;;;;12.47;100.00;99627.59;5028869;28;20114;-61
2023/07/25 02:18:47;;;;;;;14.07;6.18;;;;;;;12.49;100.00;99628.25;5028757;28;20050;-61
2023/07/25 02:21:13;;;;;;;12.57;6.43;;;;;;;12.49;100.00;99642.50;5028359;28;20049;-62
2023/07/25 02:23:40;;;;;;;13.20;6.03;;;;;;;12.51;100.00;99639.59;5028460;28;20559;-61
2023/07/25 02:26:06;;;;;;;10.35;5.95;;;;;;;12.55;100.00;99640.88;5028408;28;20523;-62
2023/07/25 02:28:33;;;;;;;9.93;5.88;;;;;;;12.48;100.00;99650.75;5028193;28;20099;-62
2023/07/25 02:31:00;;;;;;;16.10;6.68;;;;;;;12.50;100.00;99648.72;5028404;28;20061;-60
2023/07/25 02:33:26;;;;;;;15.63;6.60;;;;;;;12.54;100.00;99647.28;5028470;28;20046;-61
2023/07/25 02:35:53;;;;;;;9.25;5.97;;;;;;;12.55;100.00;99649.75;5028604;28;20134;-61
2023/07/25 02:38:19;;;;;;;11.40;6.10;;;;;;;12.55;100.00;99648.94;5025094;28;20123;-60
2023/07/25 02:40:46;;;;;;;11.15;5.90;;;;;;;12.51;100.00;99651.19;5009608;28;20406;-61
2023/07/25 02:43:13;;;;;;;11.05;6.18;;;;;;;12.48;100.00;99661.53;5009064;28;20116;-61
2023/07/25 02:45:42;;;;;;;13.15;6.00;;;;;;;12.49;100.00;99664.03;5009217;28;20456;-62
2023/07/25 02:48:09;;;;;;;16.95;6.75;;;;;;;12.43;100.00;99664.81;5008970;28;20054;-62
2023/07/25 02:50:35;;;;;;;11.15;5.80;;;;;;;12.48;100.00;99656.97;5008948;28;20045;-61
2023/07/25 02:53:03;;;;;;;13.25;5.80;;;;;;;12.49;100.00;99657.81;5008829;28;20371;-62
2023/07/25 02:55:29;;;;;;;15.60;6.35;;;;;;;12.42;100.00;99665.84;5008952;28;20106;-62
2023/07/25 02:57:56;;;;;;;16.63;5.75;;;;;;;12.48;100.00;99670.41;5008863;28;20045;-60
2023/07/25 03:00:26;;;;;;;11.23;5.85;;;;;;;12.48;100.00;99674.97;5008738;28;20547;-60
2023/07/25 03:02:52;;;;;;;12.45;6.38;;;;;;;12.47;100.00;99673.31;5008474;28;20457;-61
2023/07/25 03:05:20;;;;;;;9.20;5.57;;;;;;;12.54;100.00;99679.56;5008810;28;20061;-61
2023/07/25 03:07:46;;;;;;;11.40;6.15;;;;;;;12.50;100.00;99678.31;5009332;28;20135;-61
2023/07/25 03:10:13;;;;;;;14.82;6.15;;;;;;;12.46;100.00;99685.13;5008858;28;20161;-61
2023/07/25 03:12:40;;;;;;;14.00;6.40;;;;;;;12.45;100.00;99692.34;5008948;28;20050;-61
2023/07/25 03:15:06;;;;;;;12.55;6.15;;;;;;;12.47;100.00;99697.53;5008651;28;20049;-60
2023/07/25 03:17:33;;;;;;;16.35;6.03;;;;;;;12.41;100.00;99699.97;5008984;28;20054;-60
2023/07/25 03:19:59;;;;;;;13.73;6.00;;;;;;;12.49;100.00;99698.19;5008748;28;20054;-61
2023/07/25 03:22:27;;;;;;;16.52;6.07;;;;;;;12.57;100.00;99690.75;5007318;28;20164;-62
2023/07/25 03:24:53;;;;;;;11.98;5.47;;;;;;;12.51;100.00;99691.56;5010375;28;20489;-62
2023/07/25 03:27:21;;;;;;;13.43;5.07;;;;;;;12.52;100.00;99700.44;5012029;28;20073;-61
2023/07/25 03:29:47;;;;;;;12.27;5.72;;;;;;;12.43;100.00;99698.97;5012262;28;20069;-60
2023/07/25 03:32:14;;;;;;;14.82;5.65;;;;;;;12.39;100.00;99696.66;5012287;28;20049;-61
2023/07/25 03:34:40;;;;;;;11.35;5.63;;;;;;;12.48;100.00;99688.44;5012192;28;20112;-61
2023/07/25 03:37:07;;;;;;;13.57;5.40;;;;;;;12.45;100.00;99688.81;5011909;28;20050;-60
2023/07/25 03:39:34;;;;;;;9.40;5.03;;;;;;;12.40;100.00;99692.94;5011617;28;20046;-61
2023/07/25 03:42:02;;;;;;;10.75;5.38;;;;;;;12.40;100.00;99692.94;5011607;28;20050;-62
2023/07/25 03:44:28;;;;;;;12.05;5.80;;;;;;;12.43;100.00;99693.59;5011842;28;20457;-62
2023/07/25 03:46:55;;;;;;;11.13;5.53;;;;;;;12.46;100.00;99696.72;5011688;28;20101;-62
2023/07/25 03:49:21;;;;;;;9.38;4.88;;;;;;;12.49;100.00;99695.50;5011616;28;20062;-61
2023/07/25 03:51:48;;;;;;;10.70;5.47;;;;;;;12.45;100.00;99695.03;5012095;28;20457;-62
2023/07/25 03:54:14;;;;;;;11.82;5.43;;;;;;;12.39;100.00;99698.53;5022733;28;20049;-62
2023/07/25 03:56:41;;;;;;;19.15;5.40;;;;;;;12.35;100.00;99694.56;5031453;28;20053;-61
2023/07/25 03:59:07;;;;;;;13.70;5.40;;;;;;;12.35;100.00;99689.19;5030962;28;20049;-61
2023/07/25 04:01:34;;;;;;;17.05;5.32;;;;;;;12.35;100.00;99698.09;5031221;28;20567;-60
2023/07/25 04:04:01;;;;;;;14.32;5.15;;;;;;;12.27;100.00;99700.09;5031046;28;20068;-62
2023/07/25 04:06:27;;;;;;;14.02;5.22;;;;;;;12.20;100.00;99713.47;5030989;28;20129;-61
2023/07/25 04:08:54;;;;;;;13.82;5.40;;;;;;;12.25;100.00;99699.47;5030845;28;20487;-62
2023/07/25 04:11:20;;;;;;;15.95;5.22;;;;;;;12.20;100.00;99693.84;5030964;28;20045;-62
2023/07/25 04:13:47;;;;;;;14.35;5.45;;;;;;;12.17;100.00;99698.59;5031409;28;20486;-61
2023/07/25 04:16:13;;;;;;;9.60;5.90;;;;;;;12.21;100.00;99699.03;5031182;28;20099;-61
2023/07/25 04:18:41;;;;;;;13.95;5.45;;;;;;;12.20;100.00;99708.09;5031177;28;20096;-62
2023/07/25 04:21:07;;;;;;;15.82;5.38;;;;;;;12.24;100.00;99700.47;5030735;28;20103;-62
2023/07/25 04:23:34;;;;;;;10.52;4.85;;;;;;;12.31;100.00;99704.88;5029487;28;20088;-61
2023/07/25 04:26:00;;;;;;;11.70;5.28;;;;;;;12.34;100.00;99709.03;5030763;28;20049;-62
2023/07/25 04:28:27;;;;;;;14.35;6.57;;;;;;;12.33;100.00;99710.88;5030831;28;20115;-62
2023/07/25 04:30:57;;;;;;;19.58;7.50;;;;;;;12.29;100.00;99714.19;5030386;28;20215;-62
2023/07/25 04:33:24;;;;;;;17.88;5.70;;;;;;;12.37;100.00;99719.41;5030573;28;20045;-61
2023/07/25 04:35:51;;;;;;;15.20;5.55;;;;;;;12.35;100.00;99719.59;5010304;28;20049;-60
2023/07/25 04:38:17;;;;;;;11.60;4.60;;;;;;;12.41;100.00;99721.50;5010343;28;20559;-61
2023/07/25 04:40:44;;;;;;;16.52;5.05;;;;;;;12.39;100.00;99714.66;5010807;28;20046;-62
2023/07/25 04:43:10;;;;;;;11.32;5.20;;;;;;;12.38;100.00;99713.84;5011077;28;20074;-62
2023/07/25 04:45:37;;;;;;;10.77;4.82;;;;;;;12.48;100.00;99720.72;5010794;28;20100;-62
2023/07/25 04:48:05;;;;;;;11.63;4.28;;;;;;;12.48;100.00;99720.72;5010653;28;20050;-61
2023/07/25 04:50:32;;;;;;;14.30;4.68;;;;;;;12.53;100.00;99729.84;5010206;28;20108;-61
2023/07/25 04:52:58;;;;;;;15.30;5.13;;;;;;;12.56;100.00;99728.66;5011244;28;20053;-61
2023/07/25 04:55:25;;;;;;;17.55;5.75;;;;;;;12.65;100.00;99732.81;5030087;28;20049;-61
2023/07/25 04:57:52;;;;;;;14.18;4.88;;;;;;;12.68;100.00;99731.59;5030161;28;20494;-62
2023/07/25 05:00:19;;;;;;;12.90;4.45;;;;;;;12.58;100.00;99726.56;5030550;28;20053;-62
2023/07/25 05:02:45;;;;;;;8.20;4.32;;;;;;;12.61;100.00;99720.78;5030058;28;20048;-62
2023/07/25 05:05:12;;;;;;;14.82;5.00;;;;;;;12.57;100.00;99727.59;5030062;28;20056;-61
2023/07/25 05:07:39;;;;;;;13.90;5.07;;;;;;;12.59;100.00;99717.47;5030111;28;20057;-62
2023/07/25 05:10:06;;;;;;;16.77;4.40;;;;;;;12.66;100.00;99715.66;5029659;28;20556;-63
2023/07/25 05:12:33;;;;;;;20.55;4.60;;;;;;;12.60;100.00;99711.06;5030240;28;20049;-62
2023/07/25 05:15:00;;;;;;;18.73;5.03;;;;;;;12.81;100.00;99712.88;5029653;28;20068;-61
2023/07/25 05:17:26;;;;;;;11.52;4.53;;;;;;;12.82;100.00;99704.56;5029693;28;20053;-61
2023/07/25 05:19:53;;;;;;;12.65;4.60;;;;;;;12.75;100.00;99698.34;5029299;28;20121;-62
2023/07/25 05:22:19;;;;;;;14.57;4.40;;;;;;;12.72;100.00;99690.63;5030443;28;20494;-60
2023/07/25 05:24:47;;;;;;;15.82;5.22;;;;;;;12.64;100.00;99698.88;5029698;28;20049;-61
2023/07/25 05:27:14;;;;;;;15.38;4.28;;;;;;;12.67;100.00;99686.88;5028292;28;20057;-61
2023/07/25 05:29:40;;;;;;;16.35;4.13;;;;;;;12.70;100.00;99681.13;5029767;28;20136;-62
2023/07/25 05:32:07;;;;;;;12.20;4.28;;;;;;;12.65;100.00;99685.22;5028545;28;20053;-61
2023/07/25 05:34:34;;;;;;;10.90;4.20;;;;;;;12.80;100.00;99687.81;5028543;28;20057;-61
2023/07/25 05:37:01;;;;;;;12.68;4.53;;;;;;;12.76;100.00;99700.00;5029690;28;20453;-63
2023/07/25 05:39:28;;;;;;;11.45;3.42;;;;;;;12.91;100.00;99709.81;5029572;28;20046;-62
2023/07/25 05:41:54;;;;;;;10.00;3.58;;;;;;;12.98;100.00;99721.44;5029196;28;20057;-62
2023/07/25 05:44:21;;;;;;;15.48;3.80;;;;;;;12.93;100.00;99724.72;5028757;28;20635;-62
2023/07/25 05:46:47;;;;;;;15.38;4.65;;;;;;;12.89;100.00;99720.75;5029298;28;20488;-62
2023/07/25 05:49:14;;;;;;;14.10;3.83;;;;;;;13.06;100.00;99734.72;5029362;28;20049;-63
2023/07/25 05:51:42;;;;;;;14.95;3.90;;;;;;;13.17;100.00;99742.22;5029178;28;20122;-62
2023/07/25 05:54:09;;;;;;;14.02;3.90;;;;;;;13.23;100.00;99752.19;5029282;28;20103;-62
2023/07/25 05:56:36;;;;;;;15.75;3.85;;;;;;;13.32;100.00;99769.84;5029452;28;20460;-62
2023/07/25 05:59:02;;;;;;;13.38;3.63;;;;;;;13.46;100.00;99788.75;5020348;28;20087;-62
2023/07/25 06:01:29;;;;;;;8.88;3.38;;;;;;;13.46;100.00;99807.63;5042550;28;20354;-63
2023/07/25 06:03:56;;;;;;;12.43;3.10;;;;;;;13.44;100.00;99823.16;5029189;28;20065;-62
2023/07/25 06:06:23;;;;;;;12.38;3.72;;;;;;;13.44;100.00;99829.38;5029141;28;20125;-62
2023/07/25 06:08:49;;;;;;;13.48;3.47;;;;;;;13.62;100.00;99836.88;5024687;28;20058;-62
2023/07/25 06:11:21;;;;;;;13.85;3.63;;;;;;;13.72;100.00;99825.72;5009430;28;20600;-61
2023/07/25 06:13:49;;;;;;;26.17;15.35;;;;;;;13.74;100.00;99829.91;5008811;28;20057;-62
2023/07/25 06:16:16;;;;;;;35.30;14.55;;;;;;;13.75;100.00;99826.16;5009394;28;20046;-61
2023/07/25 06:18:43;;;;;;;18.80;4.35;;;;;;;13.84;100.00;99832.25;5009083;28;20115;-61
2023/07/25 06:21:10;;;;;;;14.23;3.58;;;;;;;13.71;100.00;99829.47;5009538;28;20104;-61
2023/07/25 06:23:37;;;;;;;14.65;3.80;;;;;;;13.67;100.00;99828.22;5009213;28;20061;-62
2023/07/25 06:26:04;;;;;;;10.60;3.22;;;;;;;13.67;100.00;99829.03;5008342;28;20493;-60
2023/07/25 06:28:30;;;;;;;12.35;3.30;;;;;;;13.76;100.00;99833.22;5007635;28;20050;-63
2023/07/25 06:30:57;;;;;;;8.15;2.55;;;;;;;13.55;100.00;99836.03;5007862;28;20070;-61
2023/07/25 06:33:24;;;;;;;19.15;3.83;;;;;;;13.51;100.00;99834.78;5009340;28;20128;-61
2023/07/25 06:35:50;;;;;;;10.40;3.15;;;;;;;13.53;100.00;99821.94;5009158;28;20375;-62
2023/07/25 06:38:17;;;;;;;8.73;2.67;;;;;;;13.72;100.00;99823.03;5009261;28;20045;-61
2023/07/25 06:40:43;;;;;;;10.50;2.90;;;;;;;13.97;100.00;99834.94;5009218;28;20049;-62
2023/07/25 06:43:10;;;;;;;7.90;2.80;;;;;;;14.13;100.00;99843.72;5008742;28;20060;-63
2023/07/25 06:45:36;;;;;;;10.77;3.22;;;;;;;14.40;100.00;99840.00;5009606;28;20140;-62
2023/07/25 06:48:03;;;;;;;11.90;3.05;;;;;;;14.37;100.00;99836.88;5009178;28;20053;-62
2023/07/25 06:50:32;;;;;;;9.50;2.60;;;;;;;14.09;100.00;99834.38;5025350;28;20046;-61
2023/07/25 06:52:59;;;;;;;10.70;2.72;;;;;;;13.97;100.00;99834.13;5029564;28;20049;-62
2023/07/25 06:55:26;;;;;;;9.95;2.47;;;;;;;14.06;100.00;99828.34;5035732;28;20519;-61
2023/07/25 06:57:52;;;;;;;9.60;2.40;;;;;;;14.10;100.00;99836.03;5028588;28;20442;-62
2023/07/25 07:00:19;;;;;;;9.43;2.70;;;;;;;14.36;100.00;99821.72;5031458;28;20058;-62
2023/07/25 07:02:47;;;;;;;16.02;3.15;;;;;;;14.63;100.00;99817.97;5032535;28;20045;-61
2023/07/25 07:05:14;;;;;;;11.93;2.30;;;;;;;14.87;100.00;99821.94;5012620;28;20057;-62
2023/07/25 07:07:54;;;;;;;11.02;2.22;;;;;;;15.16;100.00;99822.50;5012333;28;20038;-61
2023/07/25 07:10:20;;;;;;;8.63;2.38;;;;;;;14.99;100.00;99824.81;5012326;28;20100;-62
2023/07/25 07:12:52;;;;;;;8.18;2.20;;;;;;;14.74;100.00;99824.66;5012524;28;20073;-62
2023/07/25 07:15:21;;;;;;;8.57;2.15;;;;;;;14.79;100.00;99815.94;5013017;28;20132;-62
2023/07/25 07:17:47;;;;;;;8.80;1.88;;;;;;;14.89;100.00;99817.16;5012518;28;20045;-62
2023/07/25 07:20:14;;;;;;;8.25;2.20;;;;;;;15.25;100.00;99816.63;5012451;28;20080;-62
2023/07/25 07:22:41;;;;;;;7.85;1.83;;;;;;;15.39;100.00;99809.31;5012359;28;20053;-62
2023/07/25 07:25:09;;;;;;;9.07;2.00;;;;;;;15.52;100.00;99815.72;5012282;28;20054;-62
2023/07/25 07:27:35;;;;;;;10.48;2.08;;;;;;;15.73;100.00;99811.91;5012227;28;20481;-63
2023/07/25 07:30:03;;;;;;;14.30;2.53;;;;;;;15.79;100.00;99797.53;5012044;28;20054;-61
2023/07/25 07:32:30;;;;;;;6.80;2.40;;;;;;;16.24;100.00;99803.66;5012115;28;20046;-62
2023/07/25 07:34:56;;;;;;;17.08;8.27;;;;;;;16.66;100.00;99806.66;5012404;28;20056;-62
2023/07/25 07:37:24;;;;;;;11.85;3.83;;;;;;;16.88;100.00;99805.19;5010767;28;20469;-64
2023/07/25 07:39:50;;;;;;;11.23;3.08;;;;;;;16.74;100.00;99797.41;5012216;28;20408;-64
2023/07/25 07:42:17;;;;;;;11.43;1.90;;;;;;;16.43;100.00;99796.41;5012339;28;20518;-61
2023/07/25 07:44:46;;;;;;;9.15;2.40;;;;;;;16.63;100.00;99802.53;5011965;28;20042;-63
2023/07/25 07:47:12;;;;;;;7.22;1.83;;;;;;;16.41;100.00;99798.53;5011877;28;20054;-60
2023/07/25 07:49:39;;;;;;;7.28;2.40;;;;;;;16.88;100.00;99799.75;5012034;28;20116;-61
2023/07/25 07:52:07;;;;;;;11.95;1.85;;;;;;;17.54;100.00;99802.78;5012092;28;20050;-63
2023/07/25 07:54:45;;;;;;;6.80;1.58;;;;;;;18.14;100.00;99805.50;5027199;28;20041;-62
2023/07/25 07:57:12;;;;;;;9.00;2.10;;;;;;;18.71;100.00;99811.25;5031611;28;20119;-62
2023/07/25 07:59:41;;;;;;;10.18;2.00;;;;;;;18.32;100.00;99804.63;5031226;28;20446;-61
2023/07/25 08:02:08;;;;;;;7.45;2.13;;;;;;;18.29;100.00;99796.94;5031324;28;20073;-61
2023/07/25 08:04:34;;;;;;;7.15;1.88;;;;;;;18.45;100.00;99787.28;5031376;28;20045;-61
2023/07/25 08:07:01;;;;;;;7.57;1.63;;;;;;;18.86;100.00;99789.06;5031635;28;20052;-62
2023/07/25 08:09:28;;;;;;;7.40;1.80;;;;;;;19.34;100.00;99787.09;5031093;28;20045;-61
2023/07/25 08:11:55;;;;;;;4.93;1.90;;;;;;;19.07;100.00;99787.66;5031154;28;20041;-61
2023/07/25 08:14:22;;;;;;;8.68;2.03;;;;;;;19.43;100.00;99778.31;5031434;28;20049;-62
2023/07/25 08:16:50;;;;;;;6.32;1.83;;;;;;;19.11;100.00;99786.09;5031504;28;20137;-62
2023/07/25 08:19:16;;;;;;;7.32;1.73;;;;;;;18.70;100.00;99774.28;5032298;28;20562;-62
2023/07/25 08:21:43;;;;;;;8.43;1.92;;;;;;;18.54;100.00;99764.97;5032278;28;20100;-63
2023/07/25 08:24:09;;;;;;;7.38;2.17;;;;;;;18.78;100.00;99779.38;5032056;28;20095;-63
2023/07/25 08:26:36;;;;;;;14.77;1.67;;;;;;;19.23;100.00;99772.47;5032106;28;20461;-63
2023/07/25 08:29:02;;;;;;;6.68;1.63;;;;;;;19.67;100.00;99767.34;5032298;28;20060;-62
2023/07/25 08:31:30;;;;;;;7.80;1.38;;;;;;;20.40;94.42;99771.94;5032100;28;20045;-62
2023/07/25 08:33:56;;;;;;;10.57;2.17;;;;;;;19.94;95.48;99784.75;5030944;28;20055;-63
2023/07/25 08:36:23;;;;;;;6.03;1.90;;;;;;;19.69;100.00;99787.84;5032093;28;20049;-62
2023/07/25 08:38:50;;;;;;;12.82;2.25;;;;;;;19.49;100.00;99796.41;5032362;28;20103;-62
2023/07/25 08:41:19;;;;;;;18.42;2.05;;;;;;;19.57;100.00;99803.34;5032023;28;20049;-61
2023/07/25 08:43:49;;;;;;;14.20;2.40;;;;;;;18.94;100.00;99804.22;5032097;28;20567;-62
2023/07/25 08:46:19;;;;;;;8.13;1.98;;;;;;;19.28;99.21;99805.22;5011713;28;20042;-62
2023/07/25 08:48:47;;;;;;;12.55;1.92;;;;;;;19.62;93.10;99794.44;5012078;28;20042;-61
2023/07/25 08:51:19;;;;;;;6.78;1.55;;;;;;;20.04;78.25;99808.63;5011996;28;20489;-62
2023/07/25 08:53:55;;;;;;;6.20;1.38;;;;;;;20.36;71.70;99802.63;5019164;28;20056;-61
2023/07/25 08:56:22;;;;;;;8.57;1.77;;;;;;;20.22;70.99;99801.31;5031651;28;20458;-61
2023/07/25 08:58:50;;;;;;;6.00;1.58;;;;;;;20.42;69.49;99788.06;5031933;28;20099;-62
2023/07/25 09:01:17;;;;;;;4.22;1.20;;;;;;;20.85;66.52;99783.78;5031674;28;20060;-61
2023/07/25 09:03:45;;;;;;;7.50;1.50;;;;;;;20.83;67.31;99784.03;5031772;28;20541;-61
2023/07/25 09:06:13;;;;;;;5.78;1.77;;;;;;;21.08;68.00;99778.13;5031887;28;20045;-61
2023/07/25 09:08:40;;;;;;;4.07;1.38;;;;;;;20.31;66.94;99781.56;5031670;28;20111;-61
2023/07/25 09:11:09;;;;;;;4.65;1.65;;;;;;;20.55;70.59;99784.97;5031446;28;20061;-62
2023/07/25 09:13:37;;;;;;;8.35;1.90;;;;;;;20.61;74.16;99786.72;5031622;28;20065;-62
2023/07/25 09:16:04;;;;;;;15.88;1.90;;;;;;;20.17;76.54;99788.41;5031167;28;20468;-62
2023/07/25 09:18:31;;;;;;;6.28;1.73;;;;;;;20.03;77.94;99789.81;5031290;28;20402;-62
2023/07/25 09:20:58;;;;;;;8.43;1.73;;;;;;;19.37;82.95;99790.16;5030971;28;20107;-61
2023/07/25 09:23:24;;;;;;;6.35;1.67;;;;;;;19.26;88.35;99800.00;5029482;28;20126;-61
2023/07/25 09:26:03;;;;;;;4.85;1.48;;;;;;;19.24;94.00;99807.59;5031037;28;20053;-63
2023/07/25 09:28:31;;;;;;;4.85;1.45;;;;;;;18.52;100.00;99805.13;5031048;28;20501;-62
2023/07/25 09:31:02;;;;;;;12.13;2.10;;;;;;;18.70;100.00;99814.22;5030981;28;20073;-62
2023/07/25 09:33:30;;;;;;;8.40;2.03;;;;;;;18.46;100.00;99818.81;5031085;28;20555;-61
2023/07/25 09:35:57;;;;;;;7.82;2.25;;;;;;;18.45;100.00;99814.47;5030948;28;20111;-61
2023/07/25 09:38:24;;;;;;;13.20;1.98;;;;;;;18.09;100.00;99824.34;5030882;28;20049;-61
2023/07/25 09:40:51;;;;;;;4.28;1.58;;;;;;;18.44;100.00;99827.19;5029660;28;20049;-61
2023/07/25 09:43:27;;;;;;;6.03;1.80;;;;;;;18.40;100.00;99827.88;5031432;28;20103;-63
2023/07/25 09:45:55;;;;;;;15.52;2.08;;;;;;;18.43;94.28;99828.25;5033911;28;20042;-63
2023/07/25 09:48:22;;;;;;;10.60;1.98;;;;;;;18.51;91.64;99818.91;5031194;28;20053;-62
2023/07/25 09:50:50;;;;;;;4.60;1.08;;;;;;;18.32;92.18;99815.50;5031271;28;20045;-62
2023/07/25 09:53:17;;;;;;;5.32;1.70;;;;;;;18.59;92.28;99813.16;5031159;28;20048;-62
2023/07/25 09:55:45;;;;;;;7.63;1.83;;;;;;;18.79;88.28;99802.78;5030795;28;20508;-63
2023/07/25 09:58:12;;;;;;;7.93;1.70;;;;;;;18.97;86.86;99814.63;5029678;28;20095;-62
2023/07/25 10:00:40;;;;;;;10.10;1.80;;;;;;;19.52;82.84;99807.84;5030547;28;20049;-65
2023/07/25 10:03:09;;;;;;;13.18;1.80;;;;;;;19.41;82.12;99802.22;5030864;28;20049;-62
2023/07/25 10:05:43;;;;;;;7.53;1.85;;;;;;;19.47;78.13;99806.69;5031104;28;20739;-63
2023/07/25 10:08:12;;;;;;;5.47;1.75;;;;;;;19.50;72.82;99817.09;5030442;28;20057;-63
2023/07/25 10:10:41;;;;;;;9.68;1.58;;;;;;;19.16;74.01;99810.66;5030675;28;20472;-64
2023/07/25 10:13:09;;;;;;;3.58;1.35;;;;;;;19.20;74.05;99805.56;5030616;28;20049;-63
2023/07/25 10:15:36;;;;;;;12.75;2.00;;;;;;;19.16;78.03;99809.84;5030700;28;20490;-64
2023/07/25 10:18:15;;;;;;;7.45;1.80;;;;;;;19.22;78.00;99808.91;5030707;28;20056;-64
2023/07/25 10:20:42;;;;;;;8.48;1.92;;;;;;;19.35;76.97;99805.09;5030953;28;20045;-64
2023/07/25 10:23:10;;;;;;;4.97;1.63;;;;;;;19.26;78.30;99818.22;5030724;28;20049;-63
2023/07/25 10:25:37;;;;;;;5.72;1.73;;;;;;;19.31;79.10;99812.91;5030454;28;20111;-63
2023/07/25 10:28:04;;;;;;;6.60;1.73;;;;;;;19.45;76.34;99808.84;5030237;28;20482;-64
2023/07/25 10:30:40;;;;;;;9.20;1.25;;;;;;;19.75;70.46;99802.38;5030443;28;20045;-65
2023/07/25 10:33:07;;;;;;;3.05;1.30;;;;;;;20.66;66.40;99814.06;5031186;28;20107;-65
2023/07/25 10:35:52;;;;;;;4.32;1.65;;;;;;;22.09;59.83;99809.59;5034424;28;20513;-66
2023/07/25 10:38:40;;;;;;;4.43;1.98;;;;;;;21.91;58.29;99807.22;5034345;28;20065;-65
2023/07/25 10:41:10;;;;;;;10.27;1.90;;;;;;;21.68;60.11;99806.41;5034260;28;20497;-65
2023/07/25 10:43:52;;;;;;;4.78;1.85;;;;;;;21.29;59.88;99802.97;5034238;28;20416;-64
2023/07/25 10:46:20;;;;;;;9.18;2.08;;;;;;;20.35;62.60;99811.84;5038420;28;20413;-61
2023/07/25 10:48:49;;;;;;;8.23;1.73;;;;;;;21.29;64.04;99811.13;5020583;28;20405;-62
2023/07/25 10:51:19;;;;;;;7.65;1.80;;;;;;;22.13;58.56;99798.97;5039422;28;20132;-61
2023/07/25 10:54:04;;;;;;;4.50;1.42;;;;;;;21.81;57.80;99803.31;5050599;28;20104;-61
2023/07/25 10:56:30;;;;;;;11.35;1.88;;;;;;;22.09;60.39;99793.22;5035332;28;20048;-62
2023/07/25 10:59:02;;;;;;;8.50;2.17;;;;;;;23.62;55.95;99799.66;5032712;28;20057;-62
2023/07/25 11:01:47;;;;;;;6.35;1.58;;;;;;;23.21;54.48;99794.03;5033340;28;20049;-62
2023/07/25 11:04:29;;;;;;;5.63;1.80;;;;;;;23.87;50.66;99785.22;5037140;28;20046;-61
2023/07/25 11:06:58;;;;;;;8.95;1.65;;;;;;;25.47;46.37;99784.75;5015193;28;20159;-60
2023/07/25 11:09:26;;;;;;;6.22;1.50;;;;;;;24.92;46.86;99783.81;5022325;28;20469;-62
2023/07/25 11:11:54;;;;;;;4.63;1.60;;;;;;;24.64;47.80;99788.81;5031536;28;20421;-61
2023/07/25 11:14:22;;;;;;;8.77;2.03;;;;;;;23.74;49.86;99785.72;5025894;28;20046;-61
2023/07/25 11:16:50;;;;;;;6.80;1.60;;;;;;;23.08;50.35;99786.25;5013130;28;20049;-61
2023/07/25 11:19:19;;;;;;;7.07;2.00;;;;;;;22.47;52.07;99777.72;5026512;28;20549;-61
2023/07/25 11:21:46;;;;;;;5.68;1.65;;;;;;;22.13;55.96;99777.94;5013267;28;20113;-61
2023/07/25 11:24:12;;;;;;;4.50;1.67;;;;;;;21.51;55.46;99772.91;5012223;28;20486;-61
2023/07/25 11:26:40;;;;;;;8.32;2.00;;;;;;;20.99;58.36;99763.25;5017669;28;20050;-62
2023/07/25 11:29:10;;;;;;;3.45;1.50;;;;;;;20.46;61.17;99763.88;5013260;28;20556;-61